createdAt,value
2022-07-31T00:01:26.421Z,16.60
2022-07-31T00:03:54.788Z,16.50
2022-07-31T00:06:24.473Z,16.27
2022-07-31T00:08:52.519Z,16.48
2022-07-31T00:11:20.754Z,16.95
2022-07-31T00:13:57.404Z,17.15
2022-07-31T00:16:26.683Z,17.02
2022-07-31T00:18:54.810Z,16.55
2022-07-31T00:21:24.642Z,16.30
2022-07-31T00:23:52.908Z,17.90
2022-07-31T00:26:21.013Z,17.30
2022-07-31T00:28:49.187Z,16.48
2022-07-31T00:31:18.461Z,16.70
2022-07-31T00:33:46.839Z,16.55
2022-07-31T00:36:14.921Z,16.27
2022-07-31T00:38:44.325Z,16.65
2022-07-31T00:41:12.520Z,17.10
2022-07-31T00:43:40.677Z,17.00
2022-07-31T00:46:14.535Z,16.35
2022-07-31T00:48:42.896Z,16.30
2022-07-31T00:51:11.413Z,16.50
2022-07-31T00:53:39.533Z,16.33
2022-07-31T00:56:09.041Z,16.10
2022-07-31T00:58:37.171Z,15.75
2022-07-31T01:01:05.531Z,16.15
2022-07-31T01:03:33.680Z,16.40
2022-07-31T01:06:01.810Z,16.25
2022-07-31T01:08:29.880Z,16.33
2022-07-31T01:11:03.131Z,16.40
2022-07-31T01:13:42.602Z,16.20
2022-07-31T01:16:12.571Z,16.10
2022-07-31T01:18:41.978Z,16.45
2022-07-31T01:21:17.713Z,16.45
2022-07-31T01:24:13.546Z,16.40
2022-07-31T01:26:50.105Z,16.65
2022-07-31T01:29:25.556Z,16.40
2022-07-31T01:32:00.486Z,16.20
2022-07-31T01:34:34.830Z,16.13
2022-07-31T01:37:10.511Z,16.40
2022-07-31T01:39:44.149Z,16.25
2022-07-31T01:42:15.092Z,15.57
2022-07-31T01:44:47.210Z,15.90
2022-07-31T01:47:20.197Z,15.90
2022-07-31T01:49:50.738Z,15.68
2022-07-31T01:52:20.421Z,16.63
2022-07-31T01:54:49.898Z,17.02
2022-07-31T01:57:19.741Z,16.77
2022-07-31T01:59:54.550Z,16.13
2022-07-31T02:02:23.991Z,15.55
2022-07-31T02:04:53.623Z,15.07
2022-07-31T02:07:23.625Z,15.63
2022-07-31T02:09:59.112Z,15.45
2022-07-31T02:12:32.109Z,14.80
2022-07-31T02:15:05.494Z,14.25
2022-07-31T02:17:34.757Z,14.80
2022-07-31T02:20:03.751Z,13.98
2022-07-31T02:22:31.928Z,13.80
2022-07-31T02:25:00.411Z,13.10
2022-07-31T02:27:55.558Z,13.70
2022-07-31T02:30:19.710Z,13.93
2022-07-31T02:32:49.196Z,13.68
2022-07-31T02:35:18.722Z,13.70
2022-07-31T02:37:49.901Z,13.68
2022-07-31T02:40:19.026Z,13.50
2022-07-31T02:42:49.079Z,14.48
2022-07-31T02:45:19.742Z,15.00
2022-07-31T02:47:48.494Z,15.48
2022-07-31T02:50:20.271Z,14.10
2022-07-31T02:52:48.878Z,13.90
2022-07-31T02:55:18.698Z,14.43
2022-07-31T02:57:48.216Z,13.68
2022-07-31T03:00:23.097Z,13.60
2022-07-31T03:02:51.498Z,13.57
2022-07-31T03:05:19.854Z,13.50
2022-07-31T03:07:47.969Z,13.60
2022-07-31T03:10:16.170Z,13.90
2022-07-31T03:12:46.661Z,13.93
2022-07-31T03:15:17.782Z,14.65
2022-07-31T03:17:49.030Z,13.82
2022-07-31T03:20:18.084Z,13.25
2022-07-31T03:22:47.184Z,13.73
2022-07-31T03:25:21.152Z,13.00
2022-07-31T03:27:55.572Z,14.48
2022-07-31T03:30:25.180Z,13.40
2022-07-31T03:32:55.330Z,13.27
2022-07-31T03:35:24.372Z,13.23
2022-07-31T03:37:52.502Z,13.50
2022-07-31T03:40:20.765Z,13.15
2022-07-31T03:42:49.991Z,13.13
2022-07-31T03:45:18.768Z,14.15
2022-07-31T03:47:47.201Z,12.57
2022-07-31T03:50:17.358Z,12.77
2022-07-31T03:52:47.544Z,12.13
2022-07-31T03:55:16.183Z,12.90
2022-07-31T03:57:45.832Z,13.25
2022-07-31T04:00:17.894Z,12.05
2022-07-31T04:02:46.711Z,12.85
2022-07-31T04:05:16.357Z,11.85
2022-07-31T04:07:44.442Z,11.73
2022-07-31T04:10:12.863Z,12.68
2022-07-31T04:12:41.022Z,10.63
2022-07-31T04:15:10.012Z,10.65
2022-07-31T04:17:38.188Z,10.68
2022-07-31T04:20:07.685Z,10.77
2022-07-31T04:22:37.219Z,11.07
2022-07-31T04:25:08.617Z,10.82
2022-07-31T04:27:48.083Z,10.27
2022-07-31T04:30:16.943Z,11.77
2022-07-31T04:32:45.002Z,11.35
2022-07-31T04:35:13.725Z,11.80
2022-07-31T04:37:48.072Z,11.57
2022-07-31T04:40:17.169Z,10.95
2022-07-31T04:42:45.241Z,10.75
2022-07-31T04:45:13.521Z,10.10
2022-07-31T04:47:41.614Z,10.02
2022-07-31T04:50:10.618Z,11.15
2022-07-31T04:52:38.719Z,10.60
2022-07-31T04:55:09.093Z,10.90
2022-07-31T04:57:37.252Z,9.90
2022-07-31T05:00:07.830Z,10.38
2022-07-31T05:02:35.974Z,10.82
2022-07-31T05:05:04.262Z,10.77
2022-07-31T05:07:32.548Z,10.80
2022-07-31T05:10:00.612Z,11.25
2022-07-31T05:12:30.039Z,11.82
2022-07-31T05:14:58.343Z,11.35
2022-07-31T05:17:26.496Z,11.10
2022-07-31T05:19:54.560Z,11.18
2022-07-31T05:22:22.649Z,10.40
2022-07-31T05:24:50.868Z,11.75
2022-07-31T05:27:18.952Z,10.90
2022-07-31T05:29:48.392Z,11.30
2022-07-31T05:32:16.906Z,13.82
2022-07-31T05:34:45.264Z,11.98
2022-07-31T05:37:13.378Z,11.02
2022-07-31T05:39:41.604Z,11.10
2022-07-31T05:42:09.650Z,11.88
2022-07-31T05:44:37.934Z,13.43
2022-07-31T05:47:09.738Z,10.93
2022-07-31T05:49:38.026Z,10.50
2022-07-31T05:52:06.987Z,10.10
2022-07-31T05:54:35.513Z,9.90
2022-07-31T05:57:03.594Z,9.20
2022-07-31T05:59:32.883Z,9.27
2022-07-31T06:02:01.325Z,9.90
2022-07-31T06:04:32.667Z,9.90
2022-07-31T06:07:00.750Z,9.95
2022-07-31T06:09:29.254Z,10.45
2022-07-31T06:11:57.323Z,11.27
2022-07-31T06:14:25.785Z,11.55
2022-07-31T06:16:53.882Z,11.40
2022-07-31T06:19:24.530Z,11.80
2022-07-31T06:21:54.348Z,12.40
2022-07-31T06:24:22.542Z,12.10
2022-07-31T06:26:50.627Z,12.00
2022-07-31T06:29:19.015Z,12.55
2022-07-31T06:32:08.719Z,13.02
2022-07-31T06:34:37.660Z,12.98
2022-07-31T06:37:07.185Z,13.80
2022-07-31T06:39:54.334Z,13.75
2022-07-31T06:42:25.802Z,13.80
2022-07-31T06:44:54.368Z,13.35
2022-07-31T06:47:24.728Z,14.43
2022-07-31T06:49:52.834Z,13.50
2022-07-31T06:52:22.238Z,13.43
2022-07-31T06:54:50.623Z,13.27
2022-07-31T06:57:18.660Z,14.10
2022-07-31T06:59:46.793Z,15.27
2022-07-31T07:02:14.868Z,38.80
2022-07-31T07:05:04.646Z,41.05
2022-07-31T07:07:32.676Z,44.25
2022-07-31T07:10:00.838Z,44.65
2022-07-31T07:12:29.121Z,43.83
2022-07-31T07:14:58.099Z,44.78
2022-07-31T07:17:29.139Z,43.88
2022-07-31T07:19:58.051Z,43.47
2022-07-31T07:22:31.489Z,44.95
2022-07-31T07:25:02.175Z,46.47
2022-07-31T07:27:30.369Z,46.15
2022-07-31T07:29:58.841Z,47.60
2022-07-31T07:32:26.891Z,48.08
2022-07-31T07:34:59.280Z,49.65
2022-07-31T07:37:28.808Z,50.05
2022-07-31T07:39:56.958Z,52.05
2022-07-31T07:42:33.120Z,51.05
2022-07-31T07:45:02.229Z,52.95
2022-07-31T07:48:04.993Z,52.03
2022-07-31T07:50:27.130Z,50.70
2022-07-31T07:52:57.824Z,53.85
2022-07-31T07:55:26.365Z,53.70
2022-07-31T07:57:56.393Z,53.00
2022-07-31T08:00:24.714Z,52.10
2022-07-31T08:03:46.951Z,54.85
2022-07-31T08:05:42.667Z,51.10
2022-07-31T08:08:10.818Z,53.60
2022-07-31T08:10:40.440Z,56.45
2022-07-31T08:13:10.995Z,52.58
2022-07-31T08:15:39.158Z,55.67
2022-07-31T08:18:07.487Z,61.00
2022-07-31T08:20:37.451Z,55.65
2022-07-31T08:23:05.599Z,55.60
2022-07-31T08:25:33.795Z,53.97
2022-07-31T08:28:02.220Z,54.40
2022-07-31T08:30:32.014Z,54.50
2022-07-31T08:33:00.999Z,54.80
2022-07-31T08:35:29.814Z,56.17
2022-07-31T08:38:03.806Z,58.33
2022-07-31T08:40:34.928Z,61.15
2022-07-31T08:44:00.660Z,60.40
2022-07-31T08:46:04.189Z,57.65
2022-07-31T08:48:34.205Z,61.22
2022-07-31T08:51:04.676Z,56.53
2022-07-31T08:53:37.937Z,54.72
2022-07-31T08:56:07.295Z,58.10
2022-07-31T08:58:39.313Z,52.25
2022-07-31T09:01:12.352Z,49.97
2022-07-31T09:03:40.802Z,49.50
2022-07-31T09:06:08.881Z,49.53
2022-07-31T09:08:38.131Z,53.47
2022-07-31T09:11:07.293Z,53.05
2022-07-31T09:13:35.926Z,52.90
2022-07-31T09:16:05.004Z,53.03
2022-07-31T09:18:35.127Z,58.33
2022-07-31T09:21:05.617Z,50.20
2022-07-31T09:23:34.774Z,48.13
2022-07-31T09:26:04.981Z,57.58
2022-07-31T09:28:34.783Z,56.97
2022-07-31T09:31:03.458Z,49.80
2022-07-31T09:33:32.779Z,56.63
2022-07-31T09:36:02.258Z,57.90
2022-07-31T09:38:33.323Z,57.72
2022-07-31T09:41:55.709Z,49.00
2022-07-31T09:44:10.371Z,50.63
2022-07-31T09:46:42.927Z,47.53
2022-07-31T09:49:11.121Z,47.08
2022-07-31T09:51:41.881Z,59.15
2022-07-31T09:54:20.945Z,52.97
2022-07-31T09:56:50.267Z,58.25
2022-07-31T09:59:18.521Z,58.65
2022-07-31T10:01:49.488Z,52.40
2022-07-31T10:04:19.123Z,50.10
2022-07-31T10:06:50.894Z,57.20
2022-07-31T10:09:21.595Z,49.88
2022-07-31T10:11:51.311Z,50.30
2022-07-31T10:14:25.377Z,50.83
2022-07-31T10:16:58.159Z,59.15
2022-07-31T10:19:28.541Z,58.58
2022-07-31T10:22:01.443Z,49.35
2022-07-31T10:24:32.967Z,52.25
2022-07-31T10:27:04.421Z,57.13
2022-07-31T10:29:39.351Z,60.50
2022-07-31T10:32:08.266Z,60.85
2022-07-31T10:34:37.107Z,53.08
2022-07-31T10:37:12.684Z,50.28
2022-07-31T10:39:50.740Z,53.20
2022-07-31T10:42:30.386Z,60.47
2022-07-31T10:45:06.595Z,55.35
2022-07-31T10:47:34.761Z,60.28
2022-07-31T10:50:03.753Z,51.30
2022-07-31T10:52:34.901Z,52.53
2022-07-31T10:55:03.162Z,49.17
2022-07-31T10:57:33.297Z,49.83
2022-07-31T11:00:12.273Z,57.08
2022-07-31T11:02:40.807Z,51.33
2022-07-31T11:05:14.402Z,49.55
2022-07-31T11:07:45.762Z,49.88
2022-07-31T11:10:16.813Z,51.67
2022-07-31T11:12:45.789Z,50.53
2022-07-31T11:15:24.907Z,49.97
2022-07-31T11:18:21.853Z,51.70
2022-07-31T11:20:48.749Z,56.03
2022-07-31T11:23:18.764Z,54.58
2022-07-31T11:25:47.762Z,53.30
2022-07-31T11:28:18.963Z,59.10
2022-07-31T11:30:55.747Z,50.80
2022-07-31T11:33:41.989Z,51.78
2022-07-31T11:36:13.291Z,60.10
2022-07-31T11:38:44.734Z,56.40
2022-07-31T11:41:15.646Z,52.60
2022-07-31T11:43:48.344Z,53.30
2022-07-31T11:46:25.072Z,51.90
2022-07-31T11:48:53.594Z,52.10
2022-07-31T11:51:22.391Z,50.85
2022-07-31T11:53:57.388Z,52.20
2022-07-31T11:56:27.816Z,50.85
2022-07-31T11:58:58.001Z,49.78
2022-07-31T12:01:28.355Z,51.22
2022-07-31T12:04:08.377Z,51.63
2022-07-31T12:06:37.491Z,52.85
2022-07-31T12:09:07.374Z,52.58
2022-07-31T12:11:56.077Z,51.95
2022-07-31T12:14:31.835Z,52.28
2022-07-31T12:17:00.578Z,49.47
2022-07-31T12:19:30.379Z,51.42
2022-07-31T12:22:14.819Z,51.88
2022-07-31T12:24:44.572Z,49.50
2022-07-31T12:27:16.639Z,49.78
2022-07-31T12:29:45.370Z,49.90
2022-07-31T12:32:13.521Z,48.15
2022-07-31T12:34:43.629Z,52.13
2022-07-31T12:37:13.193Z,49.67
2022-07-31T12:40:00.881Z,54.90
2022-07-31T12:42:35.104Z,50.10
2022-07-31T12:45:17.892Z,52.03
2022-07-31T12:47:51.797Z,58.25
2022-07-31T12:50:21.086Z,53.03
2022-07-31T12:52:49.210Z,53.17
2022-07-31T12:55:19.588Z,58.72
2022-07-31T12:57:50.489Z,54.50
2022-07-31T13:00:22.816Z,55.58
2022-07-31T13:02:51.886Z,54.35
2022-07-31T13:05:20.582Z,55.83
2022-07-31T13:07:49.094Z,59.40
2022-07-31T13:10:23.693Z,58.58
2022-07-31T13:12:53.484Z,63.63
2022-07-31T13:15:29.598Z,65.68
2022-07-31T13:17:58.500Z,57.45
2022-07-31T13:20:26.953Z,54.08
2022-07-31T13:22:55.003Z,54.85
2022-07-31T13:25:24.521Z,55.90
2022-07-31T13:27:52.789Z,53.90
2022-07-31T13:30:20.901Z,51.08
2022-07-31T13:32:49.044Z,54.33
2022-07-31T13:35:24.224Z,52.78
2022-07-31T13:37:56.850Z,52.22
2022-07-31T13:40:40.275Z,57.35
2022-07-31T13:43:08.470Z,53.63
2022-07-31T13:45:37.094Z,52.75
2022-07-31T13:48:09.321Z,51.13
2022-07-31T13:50:39.598Z,49.83
2022-07-31T13:53:07.902Z,53.35
2022-07-31T13:55:39.348Z,54.72
2022-07-31T13:58:08.316Z,53.33
2022-07-31T14:00:36.728Z,58.83
2022-07-31T14:03:04.850Z,62.13
2022-07-31T14:05:40.286Z,60.35
2022-07-31T14:08:32.831Z,63.55
2022-07-31T14:10:58.211Z,61.28
2022-07-31T14:13:26.761Z,60.95
2022-07-31T14:15:54.836Z,59.38
2022-07-31T14:18:23.558Z,57.53
2022-07-31T14:20:51.975Z,58.80
2022-07-31T14:23:20.081Z,56.38
2022-07-31T14:25:51.095Z,51.20
2022-07-31T14:28:20.542Z,60.78
2022-07-31T14:30:50.666Z,49.45
2022-07-31T14:33:18.870Z,51.53
2022-07-31T14:35:53.285Z,49.42
2022-07-31T14:38:27.474Z,49.63
2022-07-31T14:40:56.303Z,50.17
2022-07-31T14:43:25.843Z,51.42
2022-07-31T14:45:53.945Z,50.60
2022-07-31T14:48:22.125Z,48.70
2022-07-31T14:50:50.297Z,51.50
2022-07-31T14:53:18.424Z,49.95
2022-07-31T14:55:46.613Z,51.13
2022-07-31T14:58:14.681Z,58.22
2022-07-31T15:00:44.217Z,49.00
2022-07-31T15:03:12.333Z,51.38
2022-07-31T15:06:50.835Z,54.95
2022-07-31T15:08:30.028Z,55.60
2022-07-31T15:10:58.112Z,59.70
2022-07-31T15:13:26.139Z,59.83
2022-07-31T15:15:55.840Z,59.17
2022-07-31T15:18:25.745Z,58.05
2022-07-31T15:20:54.102Z,63.55
2022-07-31T15:23:22.290Z,65.25
2022-07-31T15:25:50.448Z,63.72
2022-07-31T15:28:18.526Z,64.50
2022-07-31T15:30:46.719Z,15.25
2022-07-31T15:33:16.219Z,15.68
2022-07-31T15:35:44.295Z,15.35
2022-07-31T15:38:12.333Z,14.90
2022-07-31T15:40:40.645Z,16.27
2022-07-31T15:43:08.701Z,15.40
2022-07-31T15:45:36.892Z,159.50
2022-07-31T15:48:09.841Z,165.18
2022-07-31T15:50:39.797Z,164.48
2022-07-31T15:53:07.928Z,40.33
2022-07-31T15:55:36.352Z,166.57
2022-07-31T15:58:04.580Z,175.65
2022-07-31T16:00:32.658Z,160.85
2022-07-31T16:03:01.786Z,178.25
2022-07-31T16:05:36.677Z,64.50
2022-07-31T16:08:33.189Z,66.28
2022-07-31T16:10:57.655Z,64.75
2022-07-31T16:13:26.295Z,65.72
2022-07-31T16:15:54.594Z,65.75
2022-07-31T16:18:22.631Z,63.88
2022-07-31T16:20:50.738Z,68.90
2022-07-31T16:23:20.273Z,15.38
2022-07-31T16:25:48.514Z,15.60
2022-07-31T16:28:16.614Z,15.77
2022-07-31T16:30:45.717Z,16.33
2022-07-31T16:33:14.183Z,15.50
2022-07-31T16:35:42.398Z,14.93
2022-07-31T16:38:10.481Z,15.55
2022-07-31T16:40:40.018Z,14.60
2022-07-31T16:43:48.683Z,16.25
2022-07-31T16:45:59.215Z,14.75
2022-07-31T16:48:27.334Z,14.73
2022-07-31T16:50:55.510Z,14.60
2022-07-31T16:54:13.221Z,41.70
2022-07-31T16:56:14.078Z,47.70
2022-07-31T16:58:42.273Z,54.13
2022-07-31T17:01:57.039Z,16.42
2022-07-31T17:04:03.092Z,16.05
2022-07-31T17:06:36.547Z,15.35
2022-07-31T17:09:17.509Z,15.63
2022-07-31T17:11:49.906Z,15.40
2022-07-31T17:14:19.478Z,17.58
2022-07-31T17:16:49.890Z,16.83
2022-07-31T17:19:42.389Z,17.23
2022-07-31T17:22:08.182Z,17.00
2022-07-31T17:24:41.196Z,13.05
2022-07-31T17:27:10.939Z,17.63
2022-07-31T17:29:39.798Z,16.95
2022-07-31T17:32:11.085Z,17.10
2022-07-31T17:34:40.215Z,17.75
2022-07-31T17:37:09.106Z,17.42
2022-07-31T17:39:37.509Z,16.88
2022-07-31T17:42:06.054Z,17.95
2022-07-31T17:44:39.985Z,17.30
2022-07-31T17:47:09.460Z,17.88
2022-07-31T17:49:38.290Z,16.90
2022-07-31T17:52:06.945Z,17.60
2022-07-31T17:54:35.127Z,18.08
2022-07-31T17:57:04.069Z,18.13
2022-07-31T17:59:32.353Z,17.33
2022-07-31T18:02:03.627Z,17.23
2022-07-31T18:04:34.419Z,17.85
2022-07-31T18:07:04.360Z,16.67
2022-07-31T18:09:33.426Z,16.70
2022-07-31T18:12:01.976Z,17.17
2022-07-31T18:14:30.293Z,16.90
2022-07-31T18:16:58.397Z,16.73
2022-07-31T18:19:28.012Z,17.80
2022-07-31T18:21:56.150Z,17.10
2022-07-31T18:24:25.309Z,17.70
2022-07-31T18:26:54.807Z,17.55
2022-07-31T18:29:23.311Z,17.80
2022-07-31T18:31:51.533Z,17.60
2022-07-31T18:34:19.630Z,17.63
2022-07-31T18:36:54.591Z,17.55
2022-07-31T18:39:23.558Z,17.05
2022-07-31T18:41:51.713Z,17.90
2022-07-31T18:44:21.376Z,17.13
2022-07-31T18:46:50.064Z,17.95
2022-07-31T18:51:03.192Z,17.92
2022-07-31T18:52:10.032Z,17.73
2022-07-31T18:54:38.763Z,17.73
2022-07-31T18:57:07.828Z,18.17
2022-07-31T18:59:35.977Z,18.10
2022-07-31T19:02:04.730Z,18.42
2022-07-31T19:04:34.106Z,18.50
2022-07-31T19:07:02.169Z,17.92
2022-07-31T19:09:31.846Z,17.50
2022-07-31T19:12:06.080Z,19.27
2022-07-31T19:14:36.043Z,18.42
2022-07-31T19:17:04.222Z,18.00
2022-07-31T19:19:52.714Z,18.30
2022-07-31T19:22:20.916Z,17.70
2022-07-31T19:24:50.891Z,17.98
2022-07-31T19:27:19.526Z,17.73
2022-07-31T19:29:47.804Z,18.75
2022-07-31T19:32:15.874Z,18.20
2022-07-31T19:34:48.089Z,19.02
2022-07-31T19:37:20.449Z,17.95
2022-07-31T19:39:50.223Z,18.92
2022-07-31T19:42:18.562Z,18.23
2022-07-31T19:44:46.741Z,18.17
2022-07-31T19:47:15.149Z,17.80
2022-07-31T19:49:44.730Z,18.13
2022-07-31T19:52:12.966Z,18.35
2022-07-31T19:54:41.248Z,18.17
2022-07-31T19:57:11.082Z,17.92
2022-07-31T19:59:39.615Z,17.85
2022-07-31T20:02:08.084Z,17.85
2022-07-31T20:04:37.360Z,17.73
2022-07-31T20:07:05.541Z,17.75
2022-07-31T20:09:33.972Z,17.73
2022-07-31T20:12:02.294Z,19.00
2022-07-31T20:14:32.106Z,17.92
2022-07-31T20:17:00.210Z,18.17
2022-07-31T20:19:28.444Z,18.30
2022-07-31T20:21:57.550Z,17.85
2022-07-31T20:24:27.034Z,17.85
2022-07-31T20:26:55.349Z,18.08
2022-07-31T20:29:23.639Z,17.83
2022-07-31T20:31:53.513Z,18.08
2022-07-31T20:34:22.502Z,18.20
2022-07-31T20:36:50.543Z,18.60
2022-07-31T20:39:18.725Z,18.20
2022-07-31T20:41:46.816Z,17.92
2022-07-31T20:44:17.353Z,18.35
2022-07-31T20:46:45.514Z,18.50
2022-07-31T20:49:27.199Z,18.35
2022-07-31T20:52:03.564Z,18.48
2022-07-31T20:54:34.054Z,18.55
2022-07-31T20:57:02.824Z,17.70
2022-07-31T20:59:31.418Z,17.88
2022-07-31T21:01:59.594Z,17.35
2022-07-31T21:04:29.169Z,17.23
2022-07-31T21:06:57.310Z,17.77
2022-07-31T21:09:25.547Z,17.17
2022-07-31T21:11:53.650Z,16.45
2022-07-31T21:14:21.868Z,17.48
2022-07-31T21:16:50.038Z,17.50
2022-07-31T21:19:19.226Z,16.75
2022-07-31T21:21:48.688Z,16.73
2022-07-31T21:24:17.323Z,17.02
2022-07-31T21:26:46.985Z,16.52
2022-07-31T21:29:19.513Z,16.48
2022-07-31T21:31:49.973Z,16.80
2022-07-31T21:34:19.248Z,17.00
2022-07-31T21:36:50.328Z,16.48
2022-07-31T21:39:19.656Z,16.42
2022-07-31T21:41:48.229Z,17.42
2022-07-31T21:44:18.635Z,16.60
2022-07-31T21:46:49.933Z,16.80
2022-07-31T21:49:21.544Z,16.85
2022-07-31T21:51:51.745Z,16.95
2022-07-31T21:54:19.947Z,16.20
2022-07-31T21:56:48.044Z,16.80
2022-07-31T21:59:16.314Z,16.55
2022-07-31T22:01:58.024Z,15.80
2022-07-31T22:04:34.514Z,16.48
2022-07-31T22:07:21.757Z,16.00
2022-07-31T22:09:49.847Z,16.75
2022-07-31T22:12:17.953Z,16.98
2022-07-31T22:14:46.398Z,16.80
2022-07-31T22:17:14.550Z,16.77
2022-07-31T22:19:47.239Z,17.50
2022-07-31T22:22:18.361Z,16.65
2022-07-31T22:24:46.996Z,16.20
2022-07-31T22:27:33.683Z,16.90
2022-07-31T22:30:02.354Z,18.20
2022-07-31T22:32:30.782Z,16.85
2022-07-31T22:34:58.982Z,16.75
2022-07-31T22:37:29.131Z,16.73
2022-07-31T22:39:59.322Z,17.25
2022-07-31T22:42:28.604Z,17.33
2022-07-31T22:44:57.245Z,16.70
2022-07-31T22:47:27.191Z,16.52
2022-07-31T22:49:56.344Z,16.90
2022-07-31T22:52:24.811Z,16.98
2022-07-31T22:55:05.339Z,16.30
2022-07-31T22:57:33.593Z,16.15
2022-07-31T23:00:01.850Z,16.15
2022-07-31T23:02:30.108Z,16.67
2022-07-31T23:04:58.322Z,17.08
2022-07-31T23:07:26.377Z,17.25
2022-07-31T23:09:54.612Z,16.50
2022-07-31T23:12:28.357Z,17.30
2022-07-31T23:14:57.494Z,17.30
2022-07-31T23:17:25.575Z,16.60
2022-07-31T23:19:54.733Z,16.42
2022-07-31T23:22:33.266Z,17.23
2022-07-31T23:25:02.574Z,17.58
2022-07-31T23:27:32.422Z,16.35
2022-07-31T23:30:00.967Z,17.30
2022-07-31T23:32:29.675Z,16.30
2022-07-31T23:34:57.900Z,16.63
2022-07-31T23:37:25.987Z,16.35
2022-07-31T23:39:54.116Z,16.70
2022-07-31T23:42:40.437Z,17.40
2022-07-31T23:45:12.865Z,16.23
2022-07-31T23:47:46.189Z,17.05
2022-07-31T23:50:16.225Z,16.35
2022-07-31T23:52:46.750Z,17.13
2022-07-31T23:55:14.911Z,18.02
2022-07-31T23:57:43.183Z,16.88
